sensor_id;sensor_type;location;lat;lon;timestamp;temperature;humidity
29093;DHT22;16167;48.768;14.984;2023-07-13T00:00:42;20.10;1.00
29093;DHT22;16167;48.768;14.984;2023-07-13T00:03:10;20.20;1.00
29093;DHT22;16167;48.768;14.984;2023-07-13T00:05:41;20.20;1.00
29093;DHT22;16167;48.768;14.984;2023-07-13T00:08:09;20.20;1.00
29093;DHT22;16167;48.768;14.984;2023-07-13T00:10:39;20.20;1.00
29093;DHT22;16167;48.768;14.984;2023-07-13T00:13:07;20.20;1.00
29093;DHT22;16167;48.768;14.984;2023-07-13T00:15:35;20.10;1.00
29093;DHT22;16167;48.768;14.984;2023-07-13T00:18:04;20.20;1.00
29093;DHT22;16167;48.768;14.984;2023-07-13T00:20:32;20.10;1.00
29093;DHT22;16167;48.768;14.984;2023-07-13T00:23:02;20.10;1.00
29093;DHT22;16167;48.768;14.984;2023-07-13T00:25:30;20.10;1.00
29093;DHT22;16167;48.768;14.984;2023-07-13T00:27:58;20.10;1.00
29093;DHT22;16167;48.768;14.984;2023-07-13T00:30:26;20.10;1.00
29093;DHT22;16167;48.768;14.984;2023-07-13T00:32:54;20.10;1.00
29093;DHT22;16167;48.768;14.984;2023-07-13T00:35:42;20.10;1.00
29093;DHT22;16167;48.768;14.984;2023-07-13T00:38:13;20.10;1.00
29093;DHT22;16167;48.768;14.984;2023-07-13T00:40:41;20.00;1.00
29093;DHT22;16167;48.768;14.984;2023-07-13T00:43:10;20.00;1.00
29093;DHT22;16167;48.768;14.984;2023-07-13T00:48:27;20.00;1.00
29093;DHT22;16167;48.768;14.984;2023-07-13T00:50:57;20.10;1.00
29093;DHT22;16167;48.768;14.984;2023-07-13T00:53:28;20.00;1.00
29093;DHT22;16167;48.768;14.984;2023-07-13T00:55:57;20.10;1.00
29093;DHT22;16167;48.768;14.984;2023-07-13T00:58:25;20.00;1.00
29093;DHT22;16167;48.768;14.984;2023-07-13T01:00:53;20.00;1.00
29093;DHT22;16167;48.768;14.984;2023-07-13T01:03:22;20.00;1.00
29093;DHT22;16167;48.768;14.984;2023-07-13T01:05:50;20.00;1.00
29093;DHT22;16167;48.768;14.984;2023-07-13T01:08:20;20.00;1.00
29093;DHT22;16167;48.768;14.984;2023-07-13T01:10:54;20.00;1.00
29093;DHT22;16167;48.768;14.984;2023-07-13T01:13:22;19.90;1.00
29093;DHT22;16167;48.768;14.984;2023-07-13T01:15:51;19.90;1.00
29093;DHT22;16167;48.768;14.984;2023-07-13T01:18:21;19.90;1.00
29093;DHT22;16167;48.768;14.984;2023-07-13T01:20:53;19.90;1.00
29093;DHT22;16167;48.768;14.984;2023-07-13T01:23:22;19.80;5.00
29093;DHT22;16167;48.768;14.984;2023-07-13T01:25:52;19.80;1.10
29093;DHT22;16167;48.768;14.984;2023-07-13T01:28:20;19.80;1.00
29093;DHT22;16167;48.768;14.984;2023-07-13T01:30:48;19.80;1.00
29093;DHT22;16167;48.768;14.984;2023-07-13T01:33:17;19.70;1.00
29093;DHT22;16167;48.768;14.984;2023-07-13T01:35:45;19.70;1.00
29093;DHT22;16167;48.768;14.984;2023-07-13T01:38:15;19.70;1.00
29093;DHT22;16167;48.768;14.984;2023-07-13T01:40:44;19.80;1.00
29093;DHT22;16167;48.768;14.984;2023-07-13T01:43:12;19.80;1.00
29093;DHT22;16167;48.768;14.984;2023-07-13T01:45:40;19.80;1.00
29093;DHT22;16167;48.768;14.984;2023-07-13T01:48:12;19.80;1.00
29093;DHT22;16167;48.768;14.984;2023-07-13T01:50:40;19.70;1.00
29093;DHT22;16167;48.768;14.984;2023-07-13T01:53:09;19.70;8.00
29093;DHT22;16167;48.768;14.984;2023-07-13T01:55:38;19.80;15.90
29093;DHT22;16167;48.768;14.984;2023-07-13T01:58:06;19.80;1.00
29093;DHT22;16167;48.768;14.984;2023-07-13T02:00:34;19.80;1.00
29093;DHT22;16167;48.768;14.984;2023-07-13T02:03:02;19.80;1.00
29093;DHT22;16167;48.768;14.984;2023-07-13T02:05:30;19.80;1.00
29093;DHT22;16167;48.768;14.984;2023-07-13T02:07:58;19.70;1.00
29093;DHT22;16167;48.768;14.984;2023-07-13T02:10:26;19.70;1.00
29093;DHT22;16167;48.768;14.984;2023-07-13T02:12:56;19.70;1.00
29093;DHT22;16167;48.768;14.984;2023-07-13T02:15:24;19.70;1.00
29093;DHT22;16167;48.768;14.984;2023-07-13T02:17:52;19.70;1.00
29093;DHT22;16167;48.768;14.984;2023-07-13T02:20:20;19.70;1.00
29093;DHT22;16167;48.768;14.984;2023-07-13T02:22:48;19.80;1.00
29093;DHT22;16167;48.768;14.984;2023-07-13T02:25:16;19.70;1.00
29093;DHT22;16167;48.768;14.984;2023-07-13T02:27:45;19.80;1.00
29093;DHT22;16167;48.768;14.984;2023-07-13T02:30:14;19.80;1.00
29093;DHT22;16167;48.768;14.984;2023-07-13T02:32:42;19.70;1.00
29093;DHT22;16167;48.768;14.984;2023-07-13T02:35:11;19.70;1.00
29093;DHT22;16167;48.768;14.984;2023-07-13T02:37:39;19.70;1.00
29093;DHT22;16167;48.768;14.984;2023-07-13T02:40:08;19.70;1.00
29093;DHT22;16167;48.768;14.984;2023-07-13T02:42:36;19.70;1.00
29093;DHT22;16167;48.768;14.984;2023-07-13T02:45:05;19.70;1.00
29093;DHT22;16167;48.768;14.984;2023-07-13T02:47:35;19.70;1.00
29093;DHT22;16167;48.768;14.984;2023-07-13T02:50:04;19.60;1.00
29093;DHT22;16167;48.768;14.984;2023-07-13T02:52:32;19.60;1.00
29093;DHT22;16167;48.768;14.984;2023-07-13T02:55:00;19.60;1.00
29093;DHT22;16167;48.768;14.984;2023-07-13T02:57:28;19.50;1.00
29093;DHT22;16167;48.768;14.984;2023-07-13T02:59:57;19.50;1.00
29093;DHT22;16167;48.768;14.984;2023-07-13T03:02:25;19.50;1.00
29093;DHT22;16167;48.768;14.984;2023-07-13T03:04:56;19.50;1.00
29093;DHT22;16167;48.768;14.984;2023-07-13T03:07:24;19.50;1.00
29093;DHT22;16167;48.768;14.984;2023-07-13T03:09:53;19.40;1.00
29093;DHT22;16167;48.768;14.984;2023-07-13T03:12:22;19.40;1.00
29093;DHT22;16167;48.768;14.984;2023-07-13T03:14:50;19.40;1.00
29093;DHT22;16167;48.768;14.984;2023-07-13T03:17:18;19.40;1.00
29093;DHT22;16167;48.768;14.984;2023-07-13T03:19:47;19.30;1.00
29093;DHT22;16167;48.768;14.984;2023-07-13T03:22:17;19.40;1.00
29093;DHT22;16167;48.768;14.984;2023-07-13T03:24:45;19.40;1.00
29093;DHT22;16167;48.768;14.984;2023-07-13T03:27:15;19.30;1.00
29093;DHT22;16167;48.768;14.984;2023-07-13T03:29:43;19.30;1.00
29093;DHT22;16167;48.768;14.984;2023-07-13T03:32:11;19.30;1.00
29093;DHT22;16167;48.768;14.984;2023-07-13T03:34:39;19.30;1.00
29093;DHT22;16167;48.768;14.984;2023-07-13T03:37:07;19.30;1.00
29093;DHT22;16167;48.768;14.984;2023-07-13T03:39:37;19.20;1.00
29093;DHT22;16167;48.768;14.984;2023-07-13T03:42:06;19.20;1.00
29093;DHT22;16167;48.768;14.984;2023-07-13T03:44:34;19.20;1.00
29093;DHT22;16167;48.768;14.984;2023-07-13T03:47:02;19.30;1.00
29093;DHT22;16167;48.768;14.984;2023-07-13T03:49:32;19.20;1.00
29093;DHT22;16167;48.768;14.984;2023-07-13T03:52:00;19.20;1.00
29093;DHT22;16167;48.768;14.984;2023-07-13T03:54:28;19.20;1.00
29093;DHT22;16167;48.768;14.984;2023-07-13T03:56:58;19.40;1.00
29093;DHT22;16167;48.768;14.984;2023-07-13T03:59:26;19.40;1.00
29093;DHT22;16167;48.768;14.984;2023-07-13T04:01:54;19.40;1.00
29093;DHT22;16167;48.768;14.984;2023-07-13T04:04:23;19.40;1.00
29093;DHT22;16167;48.768;14.984;2023-07-13T04:06:51;19.40;1.00
29093;DHT22;16167;48.768;14.984;2023-07-13T04:09:19;19.30;1.00
29093;DHT22;16167;48.768;14.984;2023-07-13T04:11:47;19.40;1.00
29093;DHT22;16167;48.768;14.984;2023-07-13T04:14:17;19.40;1.00
29093;DHT22;16167;48.768;14.984;2023-07-13T04:16:45;19.30;1.00
29093;DHT22;16167;48.768;14.984;2023-07-13T04:19:13;19.40;1.00
29093;DHT22;16167;48.768;14.984;2023-07-13T04:21:42;19.40;1.00
29093;DHT22;16167;48.768;14.984;2023-07-13T04:24:10;19.40;1.00
29093;DHT22;16167;48.768;14.984;2023-07-13T04:26:38;19.40;1.00
29093;DHT22;16167;48.768;14.984;2023-07-13T04:29:07;19.40;1.00
29093;DHT22;16167;48.768;14.984;2023-07-13T04:31:36;19.40;1.00
29093;DHT22;16167;48.768;14.984;2023-07-13T04:34:04;19.40;1.00
29093;DHT22;16167;48.768;14.984;2023-07-13T04:36:32;19.50;1.00
29093;DHT22;16167;48.768;14.984;2023-07-13T04:39:04;19.50;1.00
29093;DHT22;16167;48.768;14.984;2023-07-13T04:41:33;19.50;1.00
29093;DHT22;16167;48.768;14.984;2023-07-13T04:44:00;19.50;1.00
29093;DHT22;16167;48.768;14.984;2023-07-13T04:46:29;19.50;1.00
29093;DHT22;16167;48.768;14.984;2023-07-13T04:48:59;19.60;1.00
29093;DHT22;16167;48.768;14.984;2023-07-13T04:51:27;19.60;1.00
29093;DHT22;16167;48.768;14.984;2023-07-13T04:53:55;19.60;1.00
29093;DHT22;16167;48.768;14.984;2023-07-13T04:56:26;19.70;1.00
29093;DHT22;16167;48.768;14.984;2023-07-13T04:58:54;19.70;1.00
29093;DHT22;16167;48.768;14.984;2023-07-13T05:01:22;19.70;1.00
29093;DHT22;16167;48.768;14.984;2023-07-13T05:03:50;19.80;1.00
29093;DHT22;16167;48.768;14.984;2023-07-13T05:06:20;19.80;1.00
29093;DHT22;16167;48.768;14.984;2023-07-13T05:08:48;19.90;1.00
29093;DHT22;16167;48.768;14.984;2023-07-13T05:11:17;19.90;1.00
29093;DHT22;16167;48.768;14.984;2023-07-13T05:13:45;19.90;1.00
29093;DHT22;16167;48.768;14.984;2023-07-13T05:16:13;20.00;1.00
29093;DHT22;16167;48.768;14.984;2023-07-13T05:18:41;20.10;1.00
29093;DHT22;16167;48.768;14.984;2023-07-13T05:21:10;20.10;1.00
29093;DHT22;16167;48.768;14.984;2023-07-13T05:23:40;20.10;1.00
29093;DHT22;16167;48.768;14.984;2023-07-13T05:26:09;20.20;1.00
29093;DHT22;16167;48.768;14.984;2023-07-13T05:28:37;20.30;1.00
29093;DHT22;16167;48.768;14.984;2023-07-13T05:31:06;20.40;1.00
29093;DHT22;16167;48.768;14.984;2023-07-13T05:33:35;20.40;1.00
29093;DHT22;16167;48.768;14.984;2023-07-13T05:36:03;20.40;1.00
29093;DHT22;16167;48.768;14.984;2023-07-13T05:38:31;20.50;1.00
29093;DHT22;16167;48.768;14.984;2023-07-13T05:41:01;20.50;1.00
29093;DHT22;16167;48.768;14.984;2023-07-13T05:43:31;20.50;1.00
29093;DHT22;16167;48.768;14.984;2023-07-13T05:45:59;20.50;1.00
29093;DHT22;16167;48.768;14.984;2023-07-13T05:48:27;20.60;1.00
29093;DHT22;16167;48.768;14.984;2023-07-13T05:50:55;20.60;1.00
29093;DHT22;16167;48.768;14.984;2023-07-13T05:53:23;20.60;1.00
29093;DHT22;16167;48.768;14.984;2023-07-13T05:55:53;20.60;1.00
29093;DHT22;16167;48.768;14.984;2023-07-13T05:58:23;20.70;1.00
29093;DHT22;16167;48.768;14.984;2023-07-13T06:00:58;20.70;1.00
29093;DHT22;16167;48.768;14.984;2023-07-13T06:03:26;20.70;1.00
29093;DHT22;16167;48.768;14.984;2023-07-13T06:05:54;20.70;1.00
29093;DHT22;16167;48.768;14.984;2023-07-13T06:08:22;20.80;1.00
29093;DHT22;16167;48.768;14.984;2023-07-13T06:10:50;20.80;1.00
29093;DHT22;16167;48.768;14.984;2023-07-13T06:13:18;20.90;1.00
29093;DHT22;16167;48.768;14.984;2023-07-13T06:15:49;20.90;1.00
29093;DHT22;16167;48.768;14.984;2023-07-13T06:18:17;20.90;1.00
29093;DHT22;16167;48.768;14.984;2023-07-13T06:20:45;21.00;1.00
29093;DHT22;16167;48.768;14.984;2023-07-13T06:23:13;21.00;1.00
29093;DHT22;16167;48.768;14.984;2023-07-13T06:25:41;21.00;1.00
29093;DHT22;16167;48.768;14.984;2023-07-13T06:28:09;21.10;1.00
29093;DHT22;16167;48.768;14.984;2023-07-13T06:30:37;21.00;1.00
29093;DHT22;16167;48.768;14.984;2023-07-13T06:33:07;21.00;1.00
29093;DHT22;16167;48.768;14.984;2023-07-13T06:35:35;21.00;1.00
29093;DHT22;16167;48.768;14.984;2023-07-13T06:38:03;21.00;1.00
29093;DHT22;16167;48.768;14.984;2023-07-13T06:40:31;21.00;1.00
29093;DHT22;16167;48.768;14.984;2023-07-13T06:42:59;21.00;1.00
29093;DHT22;16167;48.768;14.984;2023-07-13T06:45:27;20.90;1.00
29093;DHT22;16167;48.768;14.984;2023-07-13T06:47:55;21.00;1.20
29093;DHT22;16167;48.768;14.984;2023-07-13T06:50:25;21.00;1.30
29093;DHT22;16167;48.768;14.984;2023-07-13T06:52:53;21.10;1.10
29093;DHT22;16167;48.768;14.984;2023-07-13T06:55:21;21.20;1.00
29093;DHT22;16167;48.768;14.984;2023-07-13T06:57:49;21.20;1.00
29093;DHT22;16167;48.768;14.984;2023-07-13T07:00:17;21.30;1.00
29093;DHT22;16167;48.768;14.984;2023-07-13T07:02:45;21.40;1.20
29093;DHT22;16167;48.768;14.984;2023-07-13T07:05:14;21.50;1.30
29093;DHT22;16167;48.768;14.984;2023-07-13T07:07:43;21.60;3.20
29093;DHT22;16167;48.768;14.984;2023-07-13T07:10:11;21.70;2.60
29093;DHT22;16167;48.768;14.984;2023-07-13T07:12:39;21.80;1.70
29093;DHT22;16167;48.768;14.984;2023-07-13T07:15:07;22.00;2.40
29093;DHT22;16167;48.768;14.984;2023-07-13T07:17:35;22.00;4.80
29093;DHT22;16167;48.768;14.984;2023-07-13T07:20:03;22.30;6.30
29093;DHT22;16167;48.768;14.984;2023-07-13T07:22:32;22.70;8.20
29093;DHT22;16167;48.768;14.984;2023-07-13T07:25:01;23.10;7.90
29093;DHT22;16167;48.768;14.984;2023-07-13T07:27:30;23.50;12.40
29093;DHT22;16167;48.768;14.984;2023-07-13T07:30:00;23.90;15.30
29093;DHT22;16167;48.768;14.984;2023-07-13T07:32:31;24.00;17.30
29093;DHT22;16167;48.768;14.984;2023-07-13T07:35:03;24.10;22.40
29093;DHT22;16167;48.768;14.984;2023-07-13T07:37:31;24.10;24.10
29093;DHT22;16167;48.768;14.984;2023-07-13T07:40:03;24.20;20.70
29093;DHT22;16167;48.768;14.984;2023-07-13T07:42:37;24.10;20.90
29093;DHT22;16167;48.768;14.984;2023-07-13T07:45:05;24.10;24.60
29093;DHT22;16167;48.768;14.984;2023-07-13T07:47:33;24.10;23.80
29093;DHT22;16167;48.768;14.984;2023-07-13T07:50:01;24.10;26.00
29093;DHT22;16167;48.768;14.984;2023-07-13T07:52:30;24.20;26.10
29093;DHT22;16167;48.768;14.984;2023-07-13T07:54:58;24.20;26.30
29093;DHT22;16167;48.768;14.984;2023-07-13T07:57:30;24.30;26.90
29093;DHT22;16167;48.768;14.984;2023-07-13T08:00:18;24.40;25.70
29093;DHT22;16167;48.768;14.984;2023-07-13T08:02:49;24.60;26.70
29093;DHT22;16167;48.768;14.984;2023-07-13T08:05:20;24.70;26.90
29093;DHT22;16167;48.768;14.984;2023-07-13T08:08:08;25.00;27.20
29093;DHT22;16167;48.768;14.984;2023-07-13T08:10:36;25.20;25.80
29093;DHT22;16167;48.768;14.984;2023-07-13T08:13:05;25.40;27.40
29093;DHT22;16167;48.768;14.984;2023-07-13T08:15:38;25.50;27.40
29093;DHT22;16167;48.768;14.984;2023-07-13T08:18:06;25.50;26.50
29093;DHT22;16167;48.768;14.984;2023-07-13T08:20:36;25.60;27.30
29093;DHT22;16167;48.768;14.984;2023-07-13T08:23:04;25.80;25.60
29093;DHT22;16167;48.768;14.984;2023-07-13T08:25:32;25.90;25.00
29093;DHT22;16167;48.768;14.984;2023-07-13T08:28:01;26.00;22.30
29093;DHT22;16167;48.768;14.984;2023-07-13T08:30:31;26.10;23.80
29093;DHT22;16167;48.768;14.984;2023-07-13T08:32:59;26.00;22.80
29093;DHT22;16167;48.768;14.984;2023-07-13T08:35:27;26.00;22.60
29093;DHT22;16167;48.768;14.984;2023-07-13T08:37:55;26.00;23.00
29093;DHT22;16167;48.768;14.984;2023-07-13T08:40:23;26.00;22.60
29093;DHT22;16167;48.768;14.984;2023-07-13T08:42:53;26.00;22.30
29093;DHT22;16167;48.768;14.984;2023-07-13T08:45:22;26.10;22.90
29093;DHT22;16167;48.768;14.984;2023-07-13T08:47:53;26.10;21.80
29093;DHT22;16167;48.768;14.984;2023-07-13T08:50:23;26.10;20.90
29093;DHT22;16167;48.768;14.984;2023-07-13T08:52:53;26.20;21.60
29093;DHT22;16167;48.768;14.984;2023-07-13T08:55:24;26.30;23.90
29093;DHT22;16167;48.768;14.984;2023-07-13T08:57:56;26.40;25.40
29093;DHT22;16167;48.768;14.984;2023-07-13T09:03:15;26.60;17.60
29093;DHT22;16167;48.768;14.984;2023-07-13T09:05:48;26.40;23.10
29093;DHT22;16167;48.768;14.984;2023-07-13T09:08:26;26.30;25.30
29093;DHT22;16167;48.768;14.984;2023-07-13T09:10:59;26.30;24.70
29093;DHT22;16167;48.768;14.984;2023-07-13T09:13:31;26.30;19.50
29093;DHT22;16167;48.768;14.984;2023-07-13T09:16:03;26.30;21.40
29093;DHT22;16167;48.768;14.984;2023-07-13T09:18:35;26.40;18.30
29093;DHT22;16167;48.768;14.984;2023-07-13T09:21:03;26.40;20.00
29093;DHT22;16167;48.768;14.984;2023-07-13T09:23:34;26.50;19.60
29093;DHT22;16167;48.768;14.984;2023-07-13T09:26:04;26.60;17.30
29093;DHT22;16167;48.768;14.984;2023-07-13T09:28:34;26.70;18.00
29093;DHT22;16167;48.768;14.984;2023-07-13T09:31:06;26.80;17.40
29093;DHT22;16167;48.768;14.984;2023-07-13T09:33:36;26.80;17.60
29093;DHT22;16167;48.768;14.984;2023-07-13T09:36:10;26.90;17.80
29093;DHT22;16167;48.768;14.984;2023-07-13T09:38:44;27.00;17.60
29093;DHT22;16167;48.768;14.984;2023-07-13T09:41:15;27.00;17.00
29093;DHT22;16167;48.768;14.984;2023-07-13T09:46:38;26.80;16.40
29093;DHT22;16167;48.768;14.984;2023-07-13T09:49:09;26.60;16.00
29093;DHT22;16167;48.768;14.984;2023-07-13T09:51:37;26.60;16.80
29093;DHT22;16167;48.768;14.984;2023-07-13T09:54:05;26.60;18.60
29093;DHT22;16167;48.768;14.984;2023-07-13T09:56:33;26.70;17.70
29093;DHT22;16167;48.768;14.984;2023-07-13T09:59:01;26.80;17.00
29093;DHT22;16167;48.768;14.984;2023-07-13T10:01:34;27.00;16.90
29093;DHT22;16167;48.768;14.984;2023-07-13T10:04:10;27.30;17.10
29093;DHT22;16167;48.768;14.984;2023-07-13T10:06:40;27.50;14.60
29093;DHT22;16167;48.768;14.984;2023-07-13T10:09:09;27.80;15.30
29093;DHT22;16167;48.768;14.984;2023-07-13T10:11:39;27.80;15.60
29093;DHT22;16167;48.768;14.984;2023-07-13T10:14:12;27.60;16.50
29093;DHT22;16167;48.768;14.984;2023-07-13T10:16:41;27.50;13.60
29093;DHT22;16167;48.768;14.984;2023-07-13T10:19:11;27.30;14.90
29093;DHT22;16167;48.768;14.984;2023-07-13T10:21:56;27.20;14.30
29093;DHT22;16167;48.768;14.984;2023-07-13T10:24:26;27.00;13.70
29093;DHT22;16167;48.768;14.984;2023-07-13T10:26:56;26.90;15.00
29093;DHT22;16167;48.768;14.984;2023-07-13T10:29:25;26.70;15.50
29093;DHT22;16167;48.768;14.984;2023-07-13T10:31:54;26.60;15.70
29093;DHT22;16167;48.768;14.984;2023-07-13T10:34:24;26.60;17.00
29093;DHT22;16167;48.768;14.984;2023-07-13T10:36:54;26.70;16.40
29093;DHT22;16167;48.768;14.984;2023-07-13T10:39:22;26.70;16.00
29093;DHT22;16167;48.768;14.984;2023-07-13T10:41:52;26.60;15.90
29093;DHT22;16167;48.768;14.984;2023-07-13T10:44:23;26.50;16.10
29093;DHT22;16167;48.768;14.984;2023-07-13T10:46:54;26.60;15.20
29093;DHT22;16167;48.768;14.984;2023-07-13T10:49:22;26.90;16.70
29093;DHT22;16167;48.768;14.984;2023-07-13T10:51:51;27.60;15.10
29093;DHT22;16167;48.768;14.984;2023-07-13T10:54:21;28.10;17.40
29093;DHT22;16167;48.768;14.984;2023-07-13T10:56:51;28.70;15.90
29093;DHT22;16167;48.768;14.984;2023-07-13T10:59:23;29.10;16.70
29093;DHT22;16167;48.768;14.984;2023-07-13T11:01:55;29.50;15.90
29093;DHT22;16167;48.768;14.984;2023-07-13T11:04:24;29.50;13.50
29093;DHT22;16167;48.768;14.984;2023-07-13T11:06:56;29.50;14.40
29093;DHT22;16167;48.768;14.984;2023-07-13T11:09:36;30.10;15.50
29093;DHT22;16167;48.768;14.984;2023-07-13T11:12:09;30.40;14.30
29093;DHT22;16167;48.768;14.984;2023-07-13T11:14:42;30.50;12.20
29093;DHT22;16167;48.768;14.984;2023-07-13T11:23:16;30.70;12.20
29093;DHT22;16167;48.768;14.984;2023-07-13T11:25:46;30.20;10.10
29093;DHT22;16167;48.768;14.984;2023-07-13T11:28:16;29.70;12.60
29093;DHT22;16167;48.768;14.984;2023-07-13T11:30:46;29.30;12.70
29093;DHT22;16167;48.768;14.984;2023-07-13T11:33:15;28.90;13.50
29093;DHT22;16167;48.768;14.984;2023-07-13T11:35:45;28.50;13.60
29093;DHT22;16167;48.768;14.984;2023-07-13T11:38:16;28.30;13.70
29093;DHT22;16167;48.768;14.984;2023-07-13T11:40:44;28.20;14.50
29093;DHT22;16167;48.768;14.984;2023-07-13T11:43:21;28.40;16.20
29093;DHT22;16167;48.768;14.984;2023-07-13T11:45:51;29.20;15.80
29093;DHT22;16167;48.768;14.984;2023-07-13T11:48:23;30.00;14.90
29093;DHT22;16167;48.768;14.984;2023-07-13T11:50:56;30.60;13.20
29093;DHT22;16167;48.768;14.984;2023-07-13T11:53:26;30.50;13.50
29093;DHT22;16167;48.768;14.984;2023-07-13T11:55:54;30.30;12.50
29093;DHT22;16167;48.768;14.984;2023-07-13T11:58:24;30.30;12.40
29093;DHT22;16167;48.768;14.984;2023-07-13T12:00:55;30.50;14.80
29093;DHT22;16167;48.768;14.984;2023-07-13T12:03:25;31.00;14.40
29093;DHT22;16167;48.768;14.984;2023-07-13T12:06:00;31.50;14.20
29093;DHT22;16167;48.768;14.984;2023-07-13T12:08:29;31.70;13.00
29093;DHT22;16167;48.768;14.984;2023-07-13T12:11:03;31.50;11.20
29093;DHT22;16167;48.768;14.984;2023-07-13T12:13:37;31.70;11.60
29093;DHT22;16167;48.768;14.984;2023-07-13T12:16:14;31.50;10.50
29093;DHT22;16167;48.768;14.984;2023-07-13T12:18:43;31.80;10.50
29093;DHT22;16167;48.768;14.984;2023-07-13T12:21:17;32.80;12.20
29093;DHT22;16167;48.768;14.984;2023-07-13T12:23:47;33.40;11.60
29093;DHT22;16167;48.768;14.984;2023-07-13T12:26:17;34.10;12.00
29093;DHT22;16167;48.768;14.984;2023-07-13T12:28:47;34.70;9.90
29093;DHT22;16167;48.768;14.984;2023-07-13T12:31:23;34.80;8.80
29093;DHT22;16167;48.768;14.984;2023-07-13T12:33:59;34.90;9.00
29093;DHT22;16167;48.768;14.984;2023-07-13T12:36:29;35.30;9.80
29093;DHT22;16167;48.768;14.984;2023-07-13T12:38:59;35.40;10.00
29093;DHT22;16167;48.768;14.984;2023-07-13T12:41:31;35.40;8.00
29093;DHT22;16167;48.768;14.984;2023-07-13T12:44:02;34.90;8.60
29093;DHT22;16167;48.768;14.984;2023-07-13T12:46:30;34.90;8.80
29093;DHT22;16167;48.768;14.984;2023-07-13T12:48:58;34.50;8.00
29093;DHT22;16167;48.768;14.984;2023-07-13T12:51:43;33.70;9.80
29093;DHT22;16167;48.768;14.984;2023-07-13T12:54:13;33.40;10.20
29093;DHT22;16167;48.768;14.984;2023-07-13T12:56:42;33.90;13.60
29093;DHT22;16167;48.768;14.984;2023-07-13T12:59:15;34.10;9.50
29093;DHT22;16167;48.768;14.984;2023-07-13T13:01:45;34.00;11.00
29093;DHT22;16167;48.768;14.984;2023-07-13T13:04:14;34.60;12.50
29093;DHT22;16167;48.768;14.984;2023-07-13T13:06:42;35.00;8.90
29093;DHT22;16167;48.768;14.984;2023-07-13T13:09:11;35.40;10.50
29093;DHT22;16167;48.768;14.984;2023-07-13T13:11:40;35.60;9.20
29093;DHT22;16167;48.768;14.984;2023-07-13T13:14:08;35.70;9.00
29093;DHT22;16167;48.768;14.984;2023-07-13T13:16:40;36.10;10.00
29093;DHT22;16167;48.768;14.984;2023-07-13T13:19:12;35.60;8.60
29093;DHT22;16167;48.768;14.984;2023-07-13T13:21:42;35.40;8.60
29093;DHT22;16167;48.768;14.984;2023-07-13T13:24:11;34.90;8.40
29093;DHT22;16167;48.768;14.984;2023-07-13T13:26:39;34.40;8.40
29093;DHT22;16167;48.768;14.984;2023-07-13T13:29:12;34.10;9.40
29093;DHT22;16167;48.768;14.984;2023-07-13T13:31:43;34.60;9.30
29093;DHT22;16167;48.768;14.984;2023-07-13T13:34:11;35.20;9.50
29093;DHT22;16167;48.768;14.984;2023-07-13T13:36:40;35.90;9.10
29093;DHT22;16167;48.768;14.984;2023-07-13T13:39:19;35.70;9.10
29093;DHT22;16167;48.768;14.984;2023-07-13T13:41:48;35.70;8.30
29093;DHT22;16167;48.768;14.984;2023-07-13T13:44:17;34.90;7.60
29093;DHT22;16167;48.768;14.984;2023-07-13T13:46:47;34.20;8.60
29093;DHT22;16167;48.768;14.984;2023-07-13T13:49:17;33.50;8.20
29093;DHT22;16167;48.768;14.984;2023-07-13T13:51:45;32.90;9.30
29093;DHT22;16167;48.768;14.984;2023-07-13T13:54:14;32.60;10.70
29093;DHT22;16167;48.768;14.984;2023-07-13T13:56:43;32.40;11.30
29093;DHT22;16167;48.768;14.984;2023-07-13T13:59:11;32.20;9.90
29093;DHT22;16167;48.768;14.984;2023-07-13T14:01:39;31.80;10.60
29093;DHT22;16167;48.768;14.984;2023-07-13T14:04:10;31.40;11.30
29093;DHT22;16167;48.768;14.984;2023-07-13T14:06:42;31.20;11.50
29093;DHT22;16167;48.768;14.984;2023-07-13T14:09:10;30.90;12.40
29093;DHT22;16167;48.768;14.984;2023-07-13T14:11:39;30.80;12.80
29093;DHT22;16167;48.768;14.984;2023-07-13T14:14:09;30.40;11.60
29093;DHT22;16167;48.768;14.984;2023-07-13T14:16:39;30.30;12.20
29093;DHT22;16167;48.768;14.984;2023-07-13T14:19:11;29.90;13.20
29093;DHT22;16167;48.768;14.984;2023-07-13T14:21:40;29.70;14.30
29093;DHT22;16167;48.768;14.984;2023-07-13T14:24:08;29.30;13.40
29093;DHT22;16167;48.768;14.984;2023-07-13T14:26:37;29.20;14.70
29093;DHT22;16167;48.768;14.984;2023-07-13T14:29:10;29.10;14.20
29093;DHT22;16167;48.768;14.984;2023-07-13T14:31:40;28.90;14.00
29093;DHT22;16167;48.768;14.984;2023-07-13T14:34:11;28.80;14.60
29093;DHT22;16167;48.768;14.984;2023-07-13T14:36:40;28.90;14.80
29093;DHT22;16167;48.768;14.984;2023-07-13T14:39:11;28.90;14.40
29093;DHT22;16167;48.768;14.984;2023-07-13T14:41:39;28.80;14.10
29093;DHT22;16167;48.768;14.984;2023-07-13T14:44:10;28.60;14.30
29093;DHT22;16167;48.768;14.984;2023-07-13T14:46:38;28.40;14.60
29093;DHT22;16167;48.768;14.984;2023-07-13T14:49:12;28.30;15.30
29093;DHT22;16167;48.768;14.984;2023-07-13T14:51:41;28.20;15.20
29093;DHT22;16167;48.768;14.984;2023-07-13T14:54:09;28.10;15.20
29093;DHT22;16167;48.768;14.984;2023-07-13T14:56:38;28.10;15.00
29093;DHT22;16167;48.768;14.984;2023-07-13T14:59:06;28.10;16.20
29093;DHT22;16167;48.768;14.984;2023-07-13T15:01:34;28.10;15.50
29093;DHT22;16167;48.768;14.984;2023-07-13T15:04:03;28.30;15.70
29093;DHT22;16167;48.768;14.984;2023-07-13T15:06:35;28.50;15.00
29093;DHT22;16167;48.768;14.984;2023-07-13T15:09:03;28.60;15.50
29093;DHT22;16167;48.768;14.984;2023-07-13T15:11:31;28.70;14.10
29093;DHT22;16167;48.768;14.984;2023-07-13T15:13:59;28.80;14.40
29093;DHT22;16167;48.768;14.984;2023-07-13T15:16:27;28.90;14.70
29093;DHT22;16167;48.768;14.984;2023-07-13T15:18:55;28.80;14.00
29093;DHT22;16167;48.768;14.984;2023-07-13T15:21:25;28.70;14.30
29093;DHT22;16167;48.768;14.984;2023-07-13T15:23:59;28.60;15.40
29093;DHT22;16167;48.768;14.984;2023-07-13T15:26:27;29.00;17.00
29093;DHT22;16167;48.768;14.984;2023-07-13T15:28:55;29.40;13.80
29093;DHT22;16167;48.768;14.984;2023-07-13T15:31:24;29.80;13.70
29093;DHT22;16167;48.768;14.984;2023-07-13T15:33:54;30.20;13.30
29093;DHT22;16167;48.768;14.984;2023-07-13T15:36:22;30.40;12.80
29093;DHT22;16167;48.768;14.984;2023-07-13T15:38:52;30.10;12.70
29093;DHT22;16167;48.768;14.984;2023-07-13T15:41:22;29.70;12.70
29093;DHT22;16167;48.768;14.984;2023-07-13T15:43:51;29.50;13.50
29093;DHT22;16167;48.768;14.984;2023-07-13T15:46:20;29.90;12.90
29093;DHT22;16167;48.768;14.984;2023-07-13T15:48:49;29.80;13.40
29093;DHT22;16167;48.768;14.984;2023-07-13T15:51:19;29.50;14.00
29093;DHT22;16167;48.768;14.984;2023-07-13T15:53:48;29.20;16.20